Overview Statistics Trail Chart Weather Telemetry Raw packets
 

This is the latest recevied weather packets stored in our database for station/object IZ1HKE-13. If no packets are shown the sender has not sent any weather packets the latest 10 day(s).

<< 1 2 3 4 >>
Time Temp. Humidity Pressure Rain* Wind** Luminosity Snow
1788567701 22.22° C 70% 1023.6 hPa 0 mm - 0 W/m² -
1788567013 22.78° C 67% 1023.6 hPa 0 mm - 0 W/m² -
1788566326 23.33° C 65% 1023.6 hPa 0 mm - 0 W/m² -
1788565638 23.89° C 64% 1023.8 hPa 0 mm - 0 W/m² -
1788564950 23.89° C 63% 1023.6 hPa 0 mm - 0 W/m² -
1788564263 23.89° C 62% 1023.7 hPa 0 mm - 0 W/m² -
1788563576 24.44° C 61% 1023.8 hPa 0 mm - 0 W/m² -
1788562888 23.89° C 61% 1023.8 hPa 0 mm - 0 W/m² -
1788562200 23.89° C 59% 1023.8 hPa 0 mm - 0 W/m² -
1788561513 24.44° C 56% 1023.7 hPa 0 mm - 0 W/m² -
1788560825 25° C 54% 1023.6 hPa 0 mm - 0 W/m² -
1788560138 25° C 54% 1023.6 hPa 0 mm - 0 W/m² -
1788559450 25° C 53% 1023.7 hPa 0 mm - 0 W/m² -
1788558750 25° C 54% 1023.8 hPa 0 mm - 0 W/m² -
1788558062 25° C 52% 1023.7 hPa 0 mm - 0 W/m² -
1788557375 25.56° C 51% 1023.5 hPa 0 mm - 0 W/m² -
1788556687 25.56° C 49% 1023.7 hPa 0 mm - 0 W/m² -
1788555999 25.56° C 49% 1023.8 hPa 0 mm - 0 W/m² -
1788555312 25.56° C 48% 1023.8 hPa 0 mm - 0 W/m² -
1788554624 25° C 47% 1023.8 hPa 0 mm - 0 W/m² -
1788553937 24.44° C 47% 1023.9 hPa 0 mm - 0 W/m² -
1788553249 23.89° C 46% 1023.7 hPa 0 mm - 0 W/m² -
1788552562 22.78° C 46% 1023.7 hPa 0 mm - 0 W/m² -
1788551874 23.89° C 42% 1023.8 hPa 0 mm - 0 W/m² -
1788551187 23.89° C 41% 1023.7 hPa 0 mm - 0 W/m² -

* Rain latest hour (hover to see other rain measurements)
** Current wind speed in m/s (hover to see current wind gust speed)